Time;durP1;ratioP1;P1;durP2;ratioP2;P2;SDS_P1;SDS_P2;PMS_P1;PMS_P2;Temp;Humidity;BMP_temperature;BMP_pressure;BME280_temperature;BME280_humidity;BME280_pressure;Samples;Min_cycle;Max_cycle;Signal;HPM_P1;HPM_P2
2023/08/11 00:00:55;;;;;;;;;;;;;;;18.37;61.72;95027.28;4230682;27;20426;-81
2023/08/11 00:02:57;;;;;;;;;;;;;;;18.40;61.24;95023.41;4213378;28;20418;-80
2023/08/11 00:04:59;;;;;;;;;;;;;;;18.45;61.33;95025.47;4227309;27;19997;-81
2023/08/11 00:07:02;;;;;;;;;;;;;;;18.47;61.07;95021.59;4234600;27;20011;-81
2023/08/11 00:09:07;;;;;;;;;;;;;;;18.45;61.60;95017.50;4233084;27;19934;-80
2023/08/11 00:11:11;;;;;;;;;;;;;;;18.41;61.61;95015.25;4224929;28;19930;-84
2023/08/11 00:13:13;;;;;;;;;;;;;;;18.17;62.51;95019.25;4216894;28;20402;-79
2023/08/11 00:15:14;;;;;;;;;;;;;;;17.68;64.29;95014.09;4217432;28;20038;-85
2023/08/11 00:17:16;;;;;;;;;;;;;;;17.64;64.62;95012.84;4205644;28;19978;-81
2023/08/11 00:19:18;;;;;;;;;;;;;;;17.69;64.67;95016.53;4201322;28;19987;-80
2023/08/11 00:21:19;;;;;;;;;;;;;;;17.81;64.39;95016.81;4195071;28;19961;-80
2023/08/11 00:23:21;;;;;;;;;;;;;;;17.86;64.59;95022.38;4227478;28;19924;-79
2023/08/11 00:25:23;;;;;;;;;;;;;;;17.72;65.38;95016.13;4203009;28;19976;-80
2023/08/11 00:27:25;;;;;;;;;;;;;;;17.76;65.25;95017.38;4214006;28;20016;-80
2023/08/11 00:29:27;;;;;;;;;;;;;;;17.84;65.15;95008.50;4212124;28;19971;-81
2023/08/11 00:31:28;;;;;;;;;;;;;;;17.90;64.96;95012.22;4224718;28;19959;-82
2023/08/11 00:33:30;;;;;;;;;;;;;;;17.95;64.91;95017.72;4214937;28;19979;-80
2023/08/11 00:35:33;;;;;;;;;;;;;;;18.03;64.60;95008.81;4199846;28;20374;-79
2023/08/11 00:37:35;;;;;;;;;;;;;;;18.06;64.60;95016.34;4211487;28;19924;-81
2023/08/11 00:39:37;;;;;;;;;;;;;;;18.08;64.38;95012.47;4225929;28;19932;-81
2023/08/11 00:41:39;;;;;;;;;;;;;;;18.14;64.42;95024.13;4226154;28;20466;-81
2023/08/11 00:43:42;;;;;;;;;;;;;;;18.16;64.01;95017.63;4213584;28;19971;-80
2023/08/11 00:45:45;;;;;;;;;;;;;;;18.18;64.02;95025.38;4202794;28;19933;-78
2023/08/11 00:47:48;;;;;;;;;;;;;;;18.18;63.91;95030.69;4202397;28;20093;-79
2023/08/11 00:49:52;;;;;;;;;;;;;;;18.13;63.73;95025.97;4227656;28;19935;-79
2023/08/11 00:51:54;;;;;;;;;;;;;;;18.14;63.54;95029.44;4224651;28;19931;-81
2023/08/11 00:53:57;;;;;;;;;;;;;;;18.16;63.65;95028.22;4202241;28;19928;-80
2023/08/11 00:55:59;;;;;;;;;;;;;;;18.13;63.18;95025.97;4199340;28;20015;-83
2023/08/11 00:58:01;;;;;;;;;;;;;;;18.16;63.01;95030.06;4205620;28;20018;-81
2023/08/11 01:00:11;;;;;;;;;;;;;;;18.19;62.98;95027.81;4197452;28;19971;-81
2023/08/11 01:02:14;;;;;;;;;;;;;;;18.21;62.41;95023.13;4194353;28;19970;-80
2023/08/11 01:04:17;;;;;;;;;;;;;;;18.19;62.26;95022.50;4212240;28;19924;-80
2023/08/11 01:06:28;;;;;;;;;;;;;;;18.18;62.24;95022.72;4234759;28;19928;-80
2023/08/11 01:08:36;;;;;;;;;;;;;;;18.16;61.72;95017.63;4212535;28;19999;-79
2023/08/11 01:10:45;;;;;;;;;;;;;;;18.16;61.63;95014.16;4196125;28;20190;-79
2023/08/11 01:13:01;;;;;;;;;;;;;;;18.13;61.96;95017.19;4222727;28;20464;-80
2023/08/11 01:15:19;;;;;;;;;;;;;;;18.14;61.73;95018.84;4220078;28;20282;-80
2023/08/11 01:17:21;;;;;;;;;;;;;;;18.07;61.66;95024.13;4205864;28;19932;-80
2023/08/11 01:19:32;;;;;;;;;;;;;;;18.07;61.74;95024.13;4212205;28;20003;-84
2023/08/11 01:21:35;;;;;;;;;;;;;;;18.11;61.51;95021.88;4226866;28;20030;-82
2023/08/11 01:23:40;;;;;;;;;;;;;;;18.16;61.07;95022.91;4207325;28;19930;-81
2023/08/11 01:25:42;;;;;;;;;;;;;;;18.17;61.03;95027.19;4197544;28;20045;-82
2023/08/11 01:27:47;;;;;;;;;;;;;;;18.15;60.88;95020.47;4208148;28;19934;-81
2023/08/11 01:29:49;;;;;;;;;;;;;;;18.17;61.11;95029.84;4227731;28;19930;-81
2023/08/11 01:31:51;;;;;;;;;;;;;;;18.11;60.89;95033.31;4210918;28;19955;-79
2023/08/11 01:33:52;;;;;;;;;;;;;;;18.11;60.84;95030.66;4200654;28;20019;-80
2023/08/11 01:35:54;;;;;;;;;;;;;;;18.05;61.32;95025.31;4215500;28;20046;-79
2023/08/11 01:37:56;;;;;;;;;;;;;;;18.07;61.34;95026.75;4213891;28;20258;-81
2023/08/11 01:39:59;;;;;;;;;;;;;;;18.09;61.26;95024.75;4214512;28;19923;-81
2023/08/11 01:42:01;;;;;;;;;;;;;;;18.09;61.36;95026.53;4239469;27;19924;-80
2023/08/11 01:44:03;;;;;;;;;;;;;;;18.09;61.19;95021.25;4205062;28;19923;-81
2023/08/11 01:46:05;;;;;;;;;;;;;;;18.08;61.19;95025.75;4248764;28;19928;-80
2023/08/11 01:48:07;;;;;;;;;;;;;;;18.05;61.32;95023.50;4217541;28;19947;-80
2023/08/11 01:50:09;;;;;;;;;;;;;;;18.04;61.50;95026.34;4246238;28;19939;-79
2023/08/11 01:52:11;;;;;;;;;;;;;;;18.04;61.71;95018.38;4226477;28;19912;-79
2023/08/11 01:54:13;;;;;;;;;;;;;;;18.02;61.66;95029.16;4249673;27;19916;-81
2023/08/11 01:56:15;;;;;;;;;;;;;;;17.98;61.87;95020.81;4244413;27;20018;-80
2023/08/11 01:58:16;;;;;;;;;;;;;;;17.95;61.81;95021.19;4242102;27;19927;-80
2023/08/11 02:00:20;;;;;;;;;;;;;;;17.92;61.83;95026.91;4243403;28;19980;-81
2023/08/11 02:02:22;;;;;;;;;;;;;;;17.90;61.98;95023.63;4234989;28;19924;-78
2023/08/11 02:04:25;;;;;;;;;;;;;;;17.85;62.27;95023.38;4248288;28;19946;-81
2023/08/11 02:06:27;;;;;;;;;;;;;;;17.78;62.23;95030.44;4237673;28;19969;-81
2023/08/11 02:08:28;;;;;;;;;;;;;;;17.69;62.65;95021.84;4226050;28;19995;-81
2023/08/11 02:10:31;;;;;;;;;;;;;;;17.69;62.62;95021.84;4240605;27;19911;-82
2023/08/11 02:12:32;;;;;;;;;;;;;;;17.72;62.69;95016.13;4219756;28;19932;-80
2023/08/11 02:14:34;;;;;;;;;;;;;;;17.71;62.66;95034.91;4233161;28;19977;-80
2023/08/11 02:16:36;;;;;;;;;;;;;;;17.68;63.10;95030.81;4190871;28;19986;-82
2023/08/11 02:18:38;;;;;;;;;;;;;;;17.64;62.98;95034.88;4216325;28;19939;-81
2023/08/11 02:20:40;;;;;;;;;;;;;;;17.61;63.40;95030.75;4208782;28;19928;-81
2023/08/11 02:22:43;;;;;;;;;;;;;;;17.64;63.43;95026.91;4222486;28;19931;-80
2023/08/11 02:24:45;;;;;;;;;;;;;;;17.59;63.63;95026.66;4227316;28;19934;-80
2023/08/11 02:26:47;;;;;;;;;;;;;;;17.61;63.41;95028.09;4223824;28;19932;-81
2023/08/11 02:28:48;;;;;;;;;;;;;;;17.49;63.66;95032.31;4191313;28;20332;-81
2023/08/11 02:30:50;;;;;;;;;;;;;;;17.51;63.72;95035.59;4208553;28;20457;-79
2023/08/11 02:32:52;;;;;;;;;;;;;;;17.46;63.61;95037.19;4227660;28;20039;-81
2023/08/11 02:34:54;;;;;;;;;;;;;;;17.39;63.93;95039.78;4228826;28;19924;-80
2023/08/11 02:36:56;;;;;;;;;;;;;;;17.34;63.88;95044.84;4235742;27;20597;-80
2023/08/11 02:38:59;;;;;;;;;;;;;;;17.29;64.31;95039.28;4225148;28;19962;-81
2023/08/11 02:41:01;;;;;;;;;;;;;;;17.32;64.37;95036.28;4228006;27;20082;-81
2023/08/11 02:43:02;;;;;;;;;;;;;;;17.27;64.14;95034.22;4219473;28;19923;-82
2023/08/11 02:45:09;;;;;;;;;;;;;;;17.32;64.44;95038.94;4239913;27;19934;-82
2023/08/11 02:47:11;;;;;;;;;;;;;;;17.36;64.60;95037.53;4232007;27;19971;-78
2023/08/11 02:49:13;;;;;;;;;;;;;;;17.38;64.30;95040.81;4232654;28;20555;-81
2023/08/11 02:51:17;;;;;;;;;;;;;;;17.33;64.35;95043.19;4220241;28;20032;-78
2023/08/11 02:53:19;;;;;;;;;;;;;;;17.35;64.11;95041.19;4210608;28;19936;-83
2023/08/11 02:55:20;;;;;;;;;;;;;;;17.41;64.18;95043.06;4225195;28;19930;-81
2023/08/11 02:57:22;;;;;;;;;;;;;;;17.37;64.13;95037.31;4217895;28;19927;-81
2023/08/11 02:59:26;;;;;;;;;;;;;;;17.32;64.23;95041.56;4227187;28;20005;-80
2023/08/11 03:01:29;;;;;;;;;;;;;;;17.34;64.10;95042.19;4214428;28;20059;-83
2023/08/11 03:03:30;;;;;;;;;;;;;;;17.26;64.18;95047.63;4228293;28;19946;-80
2023/08/11 03:05:33;;;;;;;;;;;;;;;17.25;64.41;95046.81;4213173;27;19931;-81
2023/08/11 03:07:35;;;;;;;;;;;;;;;17.26;64.21;95042.34;4236516;27;20304;-82
2023/08/11 03:09:36;;;;;;;;;;;;;;;17.32;64.24;95047.69;4208565;28;20022;-81
2023/08/11 03:11:38;;;;;;;;;;;;;;;17.35;64.15;95047.28;4211280;28;20137;-80
2023/08/11 03:13:41;;;;;;;;;;;;;;;17.41;63.70;95045.72;4228753;28;20319;-84
2023/08/11 03:15:45;;;;;;;;;;;;;;;17.37;63.73;95049.75;4200726;28;20001;-81
2023/08/11 03:17:46;;;;;;;;;;;;;;;17.34;64.24;95055.44;4208213;28;19940;-81
2023/08/11 03:19:50;;;;;;;;;;;;;;;17.33;64.28;95053.78;4224229;28;19946;-82
2023/08/11 03:21:54;;;;;;;;;;;;;;;17.31;64.55;95055.81;4224502;28;20007;-80
2023/08/11 03:23:56;;;;;;;;;;;;;;;17.35;64.73;95059.72;4226584;28;20039;-82
2023/08/11 03:25:58;;;;;;;;;;;;;;;17.32;64.78;95060.13;4208177;28;20026;-81
2023/08/11 03:27:59;;;;;;;;;;;;;;;17.28;64.96;95061.50;4226388;28;19928;-83
2023/08/11 03:30:03;;;;;;;;;;;;;;;17.30;64.75;95056.84;4208471;28;19972;-81
2023/08/11 03:32:04;;;;;;;;;;;;;;;17.19;64.86;95058.97;4216124;28;19927;-80
2023/08/11 03:34:07;;;;;;;;;;;;;;;17.24;65.14;95055.75;4221352;28;19924;-80
2023/08/11 03:36:09;;;;;;;;;;;;;;;17.23;64.94;95053.28;4205822;28;20023;-78
2023/08/11 03:38:18;;;;;;;;;;;;;;;17.25;64.87;95060.06;4221653;28;21905;-83
2023/08/11 03:40:21;;;;;;;;;;;;;;;17.31;64.89;95069.06;4215406;28;20010;-84
2023/08/11 03:42:22;;;;;;;;;;;;;;;17.34;64.66;95060.75;4200157;28;19924;-82
2023/08/11 03:44:24;;;;;;;;;;;;;;;17.39;64.58;95058.31;4206220;28;20094;-81
2023/08/11 03:46:26;;;;;;;;;;;;;;;17.43;64.47;95059.56;4223157;28;19924;-80
2023/08/11 03:48:29;;;;;;;;;;;;;;;17.47;64.44;95057.38;4214863;27;20002;-80
2023/08/11 03:50:31;;;;;;;;;;;;;;;17.51;64.35;95062.09;4212569;28;20396;-82
2023/08/11 03:52:33;;;;;;;;;;;;;;;17.53;64.33;95057.41;4215939;27;20102;-82
2023/08/11 03:54:35;;;;;;;;;;;;;;;17.53;64.51;95059.22;4215812;28;19963;-82
2023/08/11 03:56:46;;;;;;;;;;;;;;;17.53;64.65;95061.88;4214386;28;19934;-81
2023/08/11 03:58:47;;;;;;;;;;;;;;;17.52;64.42;95058.41;4224381;28;19924;-82
2023/08/11 04:00:49;;;;;;;;;;;;;;;17.59;64.33;95054.00;4226826;28;20010;-82
2023/08/11 04:02:51;;;;;;;;;;;;;;;17.70;64.45;95059.75;4200167;28;19923;-80
2023/08/11 04:04:55;;;;;;;;;;;;;;;17.81;64.22;95059.22;4223108;28;19987;-83
2023/08/11 04:06:57;;;;;;;;;;;;;;;17.83;63.91;95053.75;4221019;28;19928;-81
2023/08/11 04:08:59;;;;;;;;;;;;;;;17.82;64.03;95052.94;4227784;28;20315;-84
2023/08/11 04:11:01;;;;;;;;;;;;;;;17.87;64.29;95055.00;4215820;28;20014;-81
2023/08/11 04:13:04;;;;;;;;;;;;;;;18.00;64.33;95055.91;4198443;28;19934;-84
2023/08/11 04:15:06;;;;;;;;;;;;;;;18.06;63.89;95058.75;4211095;28;19975;-82
2023/08/11 04:17:13;;;;;;;;;;;;;;;18.11;63.68;95061.63;4210479;28;19982;-82
2023/08/11 04:19:15;;;;;;;;;;;;;;;18.16;63.64;95056.59;4223397;28;20634;-79
2023/08/11 04:21:18;;;;;;;;;;;;;;;18.21;63.65;95051.50;4192730;28;20407;-82
2023/08/11 04:23:20;;;;;;;;;;;;;;;18.16;63.47;95051.28;4214429;28;19928;-82
2023/08/11 04:25:22;;;;;;;;;;;;;;;18.20;63.42;95055.19;4232012;28;19974;-83
2023/08/11 04:27:23;;;;;;;;;;;;;;;18.25;63.58;95051.94;4190104;28;20035;-81
2023/08/11 04:29:26;;;;;;;;;;;;;;;18.36;63.38;95054.81;4213108;28;19931;-83
2023/08/11 04:31:27;;;;;;;;;;;;;;;18.50;62.71;95065.47;4232258;28;19950;-82
2023/08/11 04:33:30;;;;;;;;;;;;;;;18.55;62.77;95063.03;4238342;28;19951;-83
2023/08/11 04:35:33;;;;;;;;;;;;;;;18.54;62.59;95061.41;4214363;28;19924;-82
2023/08/11 04:37:35;;;;;;;;;;;;;;;18.58;62.58;95062.63;4198511;28;19931;-81
2023/08/11 04:39:37;;;;;;;;;;;;;;;18.53;63.17;95070.38;4225594;28;19955;-84
2023/08/11 04:41:39;;;;;;;;;;;;;;;18.45;63.19;95071.38;4193525;28;19932;-83
2023/08/11 04:43:42;;;;;;;;;;;;;;;18.34;63.34;95071.94;4218327;28;19932;-83
2023/08/11 04:45:44;;;;;;;;;;;;;;;18.36;63.63;95075.22;4198022;28;19967;-82
2023/08/11 04:47:46;;;;;;;;;;;;;;;18.44;63.60;95079.53;4225014;28;20262;-83
2023/08/11 04:49:48;;;;;;;;;;;;;;;18.53;63.21;95073.03;4216828;28;20672;-82
2023/08/11 04:51:49;;;;;;;;;;;;;;;18.52;63.09;95074.03;4227672;28;19938;-83
2023/08/11 04:53:52;;;;;;;;;;;;;;;18.49;63.52;95079.75;4217511;28;20609;-87
2023/08/11 04:55:54;;;;;;;;;;;;;;;18.30;63.97;95076.00;4213739;28;19935;-82
2023/08/11 04:57:57;;;;;;;;;;;;;;;17.96;64.87;95083.81;4203694;28;19923;-82
2023/08/11 04:59:59;;;;;;;;;;;;;;;18.00;64.81;95085.06;4235596;28;19957;-82
2023/08/11 05:02:07;;;;;;;;;;;;;;;18.04;64.59;95076.69;4211287;28;20333;-84
2023/08/11 05:04:09;;;;;;;;;;;;;;;18.03;64.92;95081.19;4223119;28;20019;-81
2023/08/11 05:06:12;;;;;;;;;;;;;;;18.14;64.68;95082.47;4211037;28;19928;-86
2023/08/11 05:08:14;;;;;;;;;;;;;;;17.99;65.32;95085.25;4202851;28;20434;-82
2023/08/11 05:10:16;;;;;;;;;;;;;;;17.81;65.99;95088.38;4235695;27;19923;-84
2023/08/11 05:12:20;;;;;;;;;;;;;;;17.31;67.94;95091.03;4229695;28;19923;-83
2023/08/11 05:14:23;;;;;;;;;;;;;;;17.12;68.68;95092.53;4214992;28;20002;-83
2023/08/11 05:16:26;;;;;;;;;;;;;;;17.12;68.31;95095.19;4202874;27;19982;-81
2023/08/11 05:18:29;;;;;;;;;;;;;;;17.21;68.73;95090.56;4223908;28;19928;-83
2023/08/11 05:20:46;;;;;;;;;;;;;;;17.18;69.04;95099.69;4211272;28;19928;-83
2023/08/11 05:22:48;;;;;;;;;;;;;;;17.15;69.04;95093.97;4217248;28;19944;-83
2023/08/11 05:24:49;;;;;;;;;;;;;;;17.38;68.26;95099.06;4228163;28;19938;-84
2023/08/11 05:26:51;;;;;;;;;;;;;;;17.65;67.33;95097.44;4217305;28;20315;-82
2023/08/11 05:28:56;;;;;;;;;;;;;;;17.59;67.55;95106.13;4208844;28;19925;-82
2023/08/11 05:30:57;;;;;;;;;;;;;;;17.29;68.66;95108.94;4215004;28;20646;-82
2023/08/11 05:32:59;;;;;;;;;;;;;;;17.37;68.03;95108.00;4231802;27;19993;-83
2023/08/11 05:35:01;;;;;;;;;;;;;;;17.16;69.03;95114.97;4211315;28;20321;-83
2023/08/11 05:37:04;;;;;;;;;;;;;;;17.23;68.81;95116.84;4202602;28;20105;-81
2023/08/11 05:39:08;;;;;;;;;;;;;;;17.12;69.19;95113.72;4213473;28;19931;-83
2023/08/11 05:41:09;;;;;;;;;;;;;;;17.08;69.63;95116.91;4195766;28;20621;-84
2023/08/11 05:43:13;;;;;;;;;;;;;;;16.53;71.09;95116.50;4242897;27;19924;-83
2023/08/11 05:45:15;;;;;;;;;;;;;;;16.59;71.45;95118.41;4207251;28;19971;-80
2023/08/11 05:47:18;;;;;;;;;;;;;;;16.33;72.00;95113.63;4229440;27;19939;-82
2023/08/11 05:49:21;;;;;;;;;;;;;;;16.39;72.68;95120.81;4235780;28;19928;-82
2023/08/11 05:51:23;;;;;;;;;;;;;;;16.58;72.31;95108.81;4233043;28;19934;-84
2023/08/11 05:53:25;;;;;;;;;;;;;;;16.88;71.77;95114.88;4229574;27;19934;-84
2023/08/11 05:55:28;;;;;;;;;;;;;;;17.29;69.90;95118.72;4210273;28;19924;-84
2023/08/11 05:57:30;;;;;;;;;;;;;;;17.56;68.61;95125.09;4223166;27;19997;-83
2023/08/11 05:59:35;;;;;;;;;;;;;;;17.75;67.57;95124.41;4228787;28;20005;-87
2023/08/11 06:01:39;;;;;;;;;;;;;;;17.78;67.23;95126.66;4225352;28;20010;-83
2023/08/11 06:03:40;;;;;;;;;;;;;;;18.02;67.14;95119.31;4227707;28;19931;-83
2023/08/11 06:05:42;;;;;;;;;;;;;;;18.27;66.05;95122.31;4230012;28;19946;-81
2023/08/11 06:07:44;;;;;;;;;;;;;;;18.42;65.10;95125.63;4221564;28;19979;-83
2023/08/11 06:10:00;;;;;;;;;;;;;;;18.46;64.99;95122.63;4218914;28;20235;-84
2023/08/11 06:12:03;;;;;;;;;;;;;;;18.47;64.69;95125.03;4220668;28;19924;-83
2023/08/11 06:14:05;;;;;;;;;;;;;;;18.49;64.34;95125.66;4251769;27;19996;-84
2023/08/11 06:16:06;;;;;;;;;;;;;;;18.53;64.33;95124.25;4210996;28;19924;-80
2023/08/11 06:18:08;;;;;;;;;;;;;;;17.97;65.15;95129.69;4213728;28;19932;-80
2023/08/11 06:20:13;;;;;;;;;;;;;;;17.57;66.73;95127.53;4224294;28;19932;-80
2023/08/11 06:22:27;;;;;;;;;;;;;;;17.42;67.51;95131.28;4214422;28;19931;-80
2023/08/11 06:24:29;;;;;;;;;;;;;;;17.62;66.81;95126.97;4218776;28;19967;-84
2023/08/11 06:26:30;;;;;;;;;;;;;;;17.66;66.57;95132.69;4223466;28;19934;-84
2023/08/11 06:28:32;;;;;;;;;;;;;;;17.45;67.63;95126.41;4218264;28;19924;-84
2023/08/11 06:30:36;;;;;;;;;;;;;;;17.45;67.38;95131.72;4210749;28;19927;-80
2023/08/11 06:32:37;;;;;;;;;;;;;;;17.42;67.08;95132.06;4220471;28;19982;-82
2023/08/11 06:34:39;;;;;;;;;;;;;;;17.71;67.03;95125.81;4214740;27;19978;-82
2023/08/11 06:36:42;;;;;;;;;;;;;;;17.78;66.21;95131.97;4214446;27;20077;-81
2023/08/11 06:38:44;;;;;;;;;;;;;;;17.94;65.57;95130.06;4221067;27;19928;-82
2023/08/11 06:40:47;;;;;;;;;;;;;;;18.28;64.97;95134.53;4225085;28;19971;-81
2023/08/11 06:42:49;;;;;;;;;;;;;;;18.35;65.39;95127.47;4213175;28;19924;-81
2023/08/11 06:44:51;;;;;;;;;;;;;;;18.53;64.87;95124.25;4216021;28;19963;-80
2023/08/11 06:46:53;;;;;;;;;;;;;;;18.79;64.37;95128.06;4217211;28;19924;-81
2023/08/11 06:48:55;;;;;;;;;;;;;;;19.00;63.58;95127.09;4223209;28;20377;-89
2023/08/11 06:50:57;;;;;;;;;;;;;;;19.19;63.25;95128.16;4217353;28;19928;-83
2023/08/11 06:52:58;;;;;;;;;;;;;;;19.47;62.78;95125.34;4230757;28;19963;-80
2023/08/11 06:55:01;;;;;;;;;;;;;;;19.67;61.63;95130.63;4226319;28;20064;-83
2023/08/11 06:57:03;;;;;;;;;;;;;;;19.60;61.04;95125.34;4218009;28;20070;-81
2023/08/11 06:59:07;;;;;;;;;;;;;;;19.44;61.30;95129.22;4214537;28;19924;-81
2023/08/11 07:01:09;;;;;;;;;;;;;;;18.89;62.57;95133.81;4230131;27;19995;-83
2023/08/11 07:03:11;;;;;;;;;;;;;;;18.56;64.21;95136.31;4234179;27;19980;-81
2023/08/11 07:05:13;;;;;;;;;;;;;;;18.72;63.86;95137.81;4242325;27;20432;-82
2023/08/11 07:07:14;;;;;;;;;;;;;;;19.02;62.88;95135.69;4246328;27;20250;-83
2023/08/11 07:09:16;;;;;;;;;;;;;;;19.32;62.43;95144.13;4247733;27;19959;-81
2023/08/11 07:11:18;;;;;;;;;;;;;;;19.65;61.19;95148.63;4247236;27;19970;-81
2023/08/11 07:13:20;;;;;;;;;;;;;;;19.92;60.44;95153.97;4247105;27;19956;-83
2023/08/11 07:15:21;;;;;;;;;;;;;;;19.96;59.70;95141.88;4229468;28;19932;-82
2023/08/11 07:17:24;;;;;;;;;;;;;;;19.91;59.13;95142.50;4250856;27;20326;-83
2023/08/11 07:19:28;;;;;;;;;;;;;;;19.76;58.70;95145.38;4222336;28;19987;-81
2023/08/11 07:21:30;;;;;;;;;;;;;;;19.78;58.56;95147.84;4225004;28;20034;-85
2023/08/11 07:23:32;;;;;;;;;;;;;;;19.77;59.15;95143.56;4226775;28;20340;-81
2023/08/11 07:25:33;;;;;;;;;;;;;;;19.96;58.99;95141.88;4223333;27;20323;-82
2023/08/11 07:27:35;;;;;;;;;;;;;;;20.04;58.31;95145.16;4211250;28;19989;-83
2023/08/11 07:29:38;;;;;;;;;;;;;;;19.74;58.80;95152.75;4235221;27;19983;-82
2023/08/11 07:31:39;;;;;;;;;;;;;;;19.83;59.14;95142.72;4213255;27;19938;-83
2023/08/11 07:33:42;;;;;;;;;;;;;;;19.84;59.17;95147.03;4241800;27;19970;-85
2023/08/11 07:35:44;;;;;;;;;;;;;;;19.73;59.27;95148.47;4198965;28;19924;-82
2023/08/11 07:37:45;;;;;;;;;;;;;;;19.81;59.27;95142.94;4229454;27;19930;-82
2023/08/11 07:39:48;;;;;;;;;;;;;;;19.82;59.02;95149.06;4215992;28;19928;-83
2023/08/11 07:41:51;;;;;;;;;;;;;;;20.01;58.49;95142.91;4218650;27;20376;-82
2023/08/11 07:43:53;;;;;;;;;;;;;;;20.02;57.40;95147.19;4229923;28;20537;-85
2023/08/11 07:45:55;;;;;;;;;;;;;;;20.07;57.05;95143.94;4202132;28;19925;-84
2023/08/11 07:47:57;;;;;;;;;;;;;;;20.20;57.12;95151.09;4228136;28;20066;-82
2023/08/11 07:49:59;;;;;;;;;;;;;;;20.35;56.82;95145.50;4207342;28;19924;-81
2023/08/11 07:52:01;;;;;;;;;;;;;;;20.50;56.91;95145.25;4243651;28;19922;-82
2023/08/11 07:54:03;;;;;;;;;;;;;;;20.47;56.91;95143.84;4232772;28;19980;-83
2023/08/11 07:56:06;;;;;;;;;;;;;;;20.41;56.83;95145.50;4224424;28;19936;-81
2023/08/11 07:58:07;;;;;;;;;;;;;;;20.28;57.08;95144.72;4213462;28;20003;-83
2023/08/11 08:00:16;;;;;;;;;;;;;;;20.18;57.55;95148.63;4222367;28;19928;-80
2023/08/11 08:02:17;;;;;;;;;;;;;;;20.24;57.35;95150.47;4211177;28;19932;-77
2023/08/11 08:04:19;;;;;;;;;;;;;;;20.25;56.87;95149.41;4241810;28;19924;-81
2023/08/11 08:06:21;;;;;;;;;;;;;;;20.53;56.41;95150.16;4217910;28;20317;-76
2023/08/11 08:08:22;;;;;;;;;;;;;;;20.92;55.30;95143.06;4233395;28;19936;-77
2023/08/11 08:10:25;;;;;;;;;;;;;;;21.23;53.87;95137.78;4237645;28;19967;-80
2023/08/11 08:12:26;;;;;;;;;;;;;;;21.06;53.42;95150.78;4221361;28;19912;-78
2023/08/11 08:14:28;;;;;;;;;;;;;;;20.84;53.75;95149.44;4231598;28;20377;-80
2023/08/11 08:16:30;;;;;;;;;;;;;;;20.94;53.28;95146.34;4230841;28;19923;-74
2023/08/11 08:18:32;;;;;;;;;;;;;;;21.08;51.63;95145.25;4226599;28;19924;-78
2023/08/11 08:20:34;;;;;;;;;;;;;;;21.23;51.16;95143.13;4215350;28;19935;-83
2023/08/11 08:22:36;;;;;;;;;;;;;;;21.01;50.72;95147.94;4195564;28;19960;-83
2023/08/11 08:24:39;;;;;;;;;;;;;;;21.14;50.35;95147.03;4207757;28;19935;-84
2023/08/11 08:26:41;;;;;;;;;;;;;;;21.30;50.65;95148.41;4201271;28;19970;-88
2023/08/11 08:28:43;;;;;;;;;;;;;;;21.50;50.77;95148.28;4195034;28;20002;-81
2023/08/11 08:30:45;;;;;;;;;;;;;;;21.77;50.12;95145.41;4212004;28;19924;-82
2023/08/11 08:32:46;;;;;;;;;;;;;;;21.88;49.94;95142.88;4197518;28;19993;-80
2023/08/11 08:34:49;;;;;;;;;;;;;;;21.97;50.18;95145.25;4189271;28;19924;-82
2023/08/11 08:36:50;;;;;;;;;;;;;;;21.98;49.82;95142.34;4215321;28;19954;-76
2023/08/11 08:38:54;;;;;;;;;;;;;;;22.03;49.82;95147.06;4203049;28;19930;-82
2023/08/11 08:40:56;;;;;;;;;;;;;;;22.14;49.81;95141.00;4240248;27;19930;-77
2023/08/11 08:42:58;;;;;;;;;;;;;;;22.16;49.10;95144.25;4222607;27;19991;-80
2023/08/11 08:45:00;;;;;;;;;;;;;;;22.13;48.19;95139.34;4217024;28;19932;-76
2023/08/11 08:47:02;;;;;;;;;;;;;;;22.23;48.16;95138.88;4214281;28;19924;-76
2023/08/11 08:49:22;;;;;;;;;;;;;;;22.22;47.92;95143.41;4208134;28;19950;-79
2023/08/11 08:51:23;;;;;;;;;;;;;;;22.33;48.09;95136.53;4211896;28;19991;-79
2023/08/11 08:53:25;;;;;;;;;;;;;;;22.44;47.86;95138.44;4234157;27;19951;-83
2023/08/11 08:55:28;;;;;;;;;;;;;;;22.37;47.82;95142.22;4222329;27;19930;-83
2023/08/11 08:57:30;;;;;;;;;;;;;;;22.53;47.68;95140.81;4218022;28;19980;-79
2023/08/11 08:59:31;;;;;;;;;;;;;;;22.02;48.30;95138.22;4231258;27;19942;-80
2023/08/11 09:01:36;;;;;;;;;;;;;;;21.83;49.13;95141.88;4203697;27;19971;-80
2023/08/11 09:03:39;;;;;;;;;;;;;;;21.76;49.30;95144.59;4227700;27;19963;-79
2023/08/11 09:05:41;;;;;;;;;;;;;;;21.81;49.58;95146.59;4204849;28;19924;-81
2023/08/11 09:07:43;;;;;;;;;;;;;;;21.86;48.90;95144.94;4215313;28;19942;-79
2023/08/11 09:09:45;;;;;;;;;;;;;;;22.14;48.73;95140.19;4233741;27;19988;-78
2023/08/11 09:11:48;;;;;;;;;;;;;;;22.16;48.30;95141.59;4231965;27;20033;-82
2023/08/11 09:13:50;;;;;;;;;;;;;;;22.22;48.82;95139.88;4214058;28;19928;-78
2023/08/11 09:15:51;;;;;;;;;;;;;;;22.26;47.94;95139.25;4232003;27;20607;-82
2023/08/11 09:17:53;;;;;;;;;;;;;;;22.37;47.52;95140.38;4222323;27;20050;-80
2023/08/11 09:19:55;;;;;;;;;;;;;;;22.45;47.54;95136.59;4211145;28;19924;-81
2023/08/11 09:21:58;;;;;;;;;;;;;;;22.77;47.56;95131.91;4236136;27;20011;-78
2023/08/11 09:24:00;;;;;;;;;;;;;;;23.13;46.95;95122.22;4202032;28;19931;-81
2023/08/11 09:26:02;;;;;;;;;;;;;;;23.41;46.61;95123.47;4220814;28;19924;-81
2023/08/11 09:28:04;;;;;;;;;;;;;;;23.75;46.17;95118.38;4219199;28;19928;-84
2023/08/11 09:30:07;;;;;;;;;;;;;;;23.95;45.23;95115.44;4231051;28;19924;-78
2023/08/11 09:32:11;;;;;;;;;;;;;;;24.00;44.75;95115.53;4232743;27;19924;-80
2023/08/11 09:40:28;;;;;;;;;;;;;;;23.51;45.59;95126.38;4101710;28;19965;-78
2023/08/11 09:45:35;;;;;;;;;;;;;;;23.34;45.57;95122.72;4149538;28;19928;-79
2023/08/11 09:47:37;;;;;;;;;;;;;;;23.39;45.79;95120.22;4161763;28;20007;-78
2023/08/11 09:49:38;;;;;;;;;;;;;;;23.48;45.34;95124.97;4144115;28;20036;-77
2023/08/11 09:51:41;;;;;;;;;;;;;;;23.39;44.73;95120.22;4187558;28;20479;-79
2023/08/11 09:53:42;;;;;;;;;;;;;;;23.30;45.29;95117.06;4228279;28;20353;-79
2023/08/11 09:55:44;;;;;;;;;;;;;;;23.48;45.84;95116.16;4216721;27;20155;-79
2023/08/11 09:57:46;;;;;;;;;;;;;;;23.86;45.22;95121.13;4205207;28;19928;-76
2023/08/11 09:59:47;;;;;;;;;;;;;;;24.13;44.20;95117.97;4211438;28;19928;-78
2023/08/11 10:01:49;;;;;;;;;;;;;;;24.39;43.66;95113.19;4212797;28;19948;-81
2023/08/11 10:03:51;;;;;;;;;;;;;;;24.68;43.09;95112.22;4215385;28;20406;-81
2023/08/11 10:05:53;;;;;;;;;;;;;;;25.00;42.04;95109.09;4200620;28;19924;-81
2023/08/11 10:07:55;;;;;;;;;;;;;;;25.19;41.53;95107.03;4213857;27;19928;-80
2023/08/11 10:09:57;;;;;;;;;;;;;;;25.21;40.83;95109.50;4209917;28;19946;-80
2023/08/11 10:11:59;;;;;;;;;;;;;;;25.16;41.84;95102.13;4213682;28;20274;-80
2023/08/11 10:14:02;;;;;;;;;;;;;;;24.08;43.58;95110.66;4202660;28;19972;-80
2023/08/11 10:16:03;;;;;;;;;;;;;;;23.08;45.23;95111.38;4240803;27;20038;-80
2023/08/11 10:18:05;;;;;;;;;;;;;;;22.93;46.12;95100.25;4198808;28;19987;-78
2023/08/11 10:20:07;;;;;;;;;;;;;;;23.01;45.90;95100.78;4219795;27;19970;-78
2023/08/11 10:22:10;;;;;;;;;;;;;;;22.84;46.16;95103.28;4224999;28;19973;-80
2023/08/11 10:24:13;;;;;;;;;;;;;;;22.73;46.61;95111.22;4208627;28;19967;-78
2023/08/11 10:26:14;;;;;;;;;;;;;;;22.65;46.75;95097.13;4218910;28;19923;-79
2023/08/11 10:28:16;;;;;;;;;;;;;;;22.59;46.29;95098.03;4220781;28;19928;-83
2023/08/11 10:30:18;;;;;;;;;;;;;;;22.44;46.28;95105.59;4214927;28;20137;-78
2023/08/11 10:32:21;;;;;;;;;;;;;;;22.39;46.30;95103.63;4213397;28;20005;-81
2023/08/11 10:34:24;;;;;;;;;;;;;;;22.46;46.73;95099.00;4223859;27;19932;-80
2023/08/11 10:36:26;;;;;;;;;;;;;;;22.41;47.04;95101.53;4211150;28;20002;-81
2023/08/11 10:38:31;;;;;;;;;;;;;;;22.57;46.57;95091.28;4220325;28;19924;-81
2023/08/11 10:40:34;;;;;;;;;;;;;;;22.56;46.63;95090.44;4204076;28;19931;-78
2023/08/11 10:42:39;;;;;;;;;;;;;;;22.53;46.74;95090.91;4196439;28;20007;-78
2023/08/11 10:44:44;;;;;;;;;;;;;;;22.77;46.78;95081.16;4201386;28;19947;-80
2023/08/11 10:46:47;;;;;;;;;;;;;;;22.84;47.21;95087.25;4223795;28;19923;-80
2023/08/11 10:49:12;;;;;;;;;;;;;;;23.05;47.17;95082.44;4222903;27;19940;-80